Time;durP1;ratioP1;P1;durP2;ratioP2;P2;SDS_P1;SDS_P2;PMS_P1;PMS_P2;Temp;Humidity;BMP_temperature;BMP_pressure;BME280_temperature;BME280_humidity;BME280_pressure;Samples;Min_cycle;Max_cycle;Signal;HPM_P1;HPM_P2
2023/05/04 00:01:57;;;;;;;6.72;4.40;;;10.80;1.00;;;;;;7366723;19;20014;-73
2023/05/04 00:04:27;;;;;;;7.57;4.70;;;10.80;1.00;;;;;;7362186;19;20018;-72
2023/05/04 00:06:57;;;;;;;6.97;5.18;;;10.70;1.00;;;;;;7385066;19;20375;-72
2023/05/04 00:09:26;;;;;;;6.60;4.85;;;10.60;1.00;;;;;;7360361;19;20032;-73
2023/05/04 00:11:59;;;;;;;7.50;5.03;;;10.60;1.00;;;;;;7362323;19;20727;-73
2023/05/04 00:14:29;;;;;;;6.93;4.88;;;10.60;1.00;;;;;;7382601;19;20009;-73
2023/05/04 00:16:59;;;;;;;6.38;4.63;;;10.50;1.00;;;;;;7385774;19;20102;-74
2023/05/04 00:19:29;;;;;;;9.25;5.47;;;10.50;1.00;;;;;;7371665;19;20014;-72
2023/05/04 00:21:58;;;;;;;8.27;4.97;;;10.50;1.00;;;;;;7384181;19;20426;-71
2023/05/04 00:24:29;;;;;;;8.45;4.88;;;10.50;1.00;;;;;;7363128;19;20011;-71
2023/05/04 00:27:01;;;;;;;7.80;5.10;;;10.40;1.00;;;;;;7361541;19;20018;-72
2023/05/04 00:29:31;;;;;;;8.30;5.10;;;10.40;1.00;;;;;;7361727;19;20022;-72
2023/05/04 00:32:01;;;;;;;7.45;5.03;;;10.30;1.00;;;;;;7360872;19;20015;-73
2023/05/04 00:34:33;;;;;;;8.45;5.60;;;10.30;1.00;;;;;;7361081;19;20004;-73
2023/05/04 00:37:03;;;;;;;7.82;4.90;;;10.30;1.00;;;;;;7383578;19;20088;-73
2023/05/04 00:39:34;;;;;;;8.13;5.35;;;10.30;1.00;;;;;;7358782;19;20014;-72
2023/05/04 00:42:06;;;;;;;7.70;5.10;;;10.20;1.00;;;;;;7360282;19;20545;-73
2023/05/04 00:44:39;;;;;;;7.30;5.10;;;10.20;1.00;;;;;;7359758;19;20509;-73
2023/05/04 00:47:10;;;;;;;8.60;5.15;;;10.20;1.00;;;;;;7362395;19;20038;-71
2023/05/04 00:49:41;;;;;;;7.43;5.10;;;10.10;1.00;;;;;;7358653;19;20014;-72
2023/05/04 00:52:13;;;;;;;8.50;5.63;;;10.00;1.00;;;;;;7373395;19;20539;-73
2023/05/04 00:54:44;;;;;;;8.55;5.20;;;10.00;1.00;;;;;;7384585;19;20115;-72
2023/05/04 00:57:18;;;;;;;10.00;5.53;;;10.00;1.00;;;;;;7361835;19;20029;-72
2023/05/04 00:59:48;;;;;;;9.85;5.38;;;9.90;1.00;;;;;;7358222;19;20466;-72
2023/05/04 01:02:18;;;;;;;7.88;5.38;;;9.90;1.00;;;;;;7361184;19;20097;-72
2023/05/04 01:04:48;;;;;;;10.75;6.30;;;9.90;1.00;;;;;;7359602;19;20010;-72
2023/05/04 01:07:27;;;;;;;9.57;6.00;;;9.90;1.00;;;;;;7363481;19;20021;-72
2023/05/04 01:10:03;;;;;;;8.63;5.80;;;9.80;1.00;;;;;;7378178;19;20014;-72
2023/05/04 01:12:40;;;;;;;10.70;5.85;;;9.70;1.00;;;;;;7360267;19;20014;-71
2023/05/04 01:15:11;;;;;;;9.27;5.88;;;9.70;1.00;;;;;;7370502;19;20047;-73
2023/05/04 01:17:41;;;;;;;8.20;6.05;;;9.70;1.00;;;;;;7376118;19;20021;-73
2023/05/04 01:20:12;;;;;;;8.60;5.72;;;9.70;1.00;;;;;;7374044;19;20043;-72
2023/05/04 01:22:45;;;;;;;10.75;5.57;;;9.60;1.00;;;;;;7374161;19;20010;-72
2023/05/04 01:25:15;;;;;;;11.75;6.35;;;9.50;1.00;;;;;;7372633;19;20340;-73
2023/05/04 01:27:48;;;;;;;10.98;6.20;;;9.60;1.00;;;;;;7397406;19;20121;-73
2023/05/04 01:30:24;;;;;;;8.27;6.03;;;9.50;1.00;;;;;;7375027;19;20006;-73
2023/05/04 01:32:55;;;;;;;8.32;6.00;;;9.60;1.00;;;;;;7372612;19;20014;-73
2023/05/04 01:35:25;;;;;;;9.48;6.38;;;9.50;1.00;;;;;;7373517;19;20010;-72
2023/05/04 01:37:58;;;;;;;10.35;6.20;;;9.40;1.00;;;;;;7374288;19;20010;-72
2023/05/04 01:40:28;;;;;;;9.77;5.68;;;9.50;1.00;;;;;;7371858;19;20018;-72
2023/05/04 01:42:57;;;;;;;10.40;5.57;;;9.60;1.00;;;;;;7394032;19;20895;-72
2023/05/04 01:45:27;;;;;;;10.35;6.35;;;9.70;1.00;;;;;;7371769;19;20015;-72
2023/05/04 01:47:57;;;;;;;9.00;5.78;;;9.80;1.00;;;;;;7375144;19;20069;-72
2023/05/04 01:50:27;;;;;;;7.30;6.00;;;9.80;1.00;;;;;;7373936;19;20517;-72
2023/05/04 01:53:00;;;;;;;9.35;6.07;;;9.70;1.00;;;;;;7374170;19;20470;-71
2023/05/04 01:55:30;;;;;;;8.20;5.90;;;9.60;1.00;;;;;;7375038;19;20018;-72
2023/05/04 01:58:00;;;;;;;13.77;5.90;;;9.50;1.00;;;;;;7397644;19;20010;-71
2023/05/04 02:00:30;;;;;;;11.20;5.78;;;9.30;1.00;;;;;;7370404;19;20018;-73
2023/05/04 02:03:00;;;;;;;7.97;5.90;;;9.20;1.00;;;;;;7372417;19;20019;-72
2023/05/04 02:05:30;;;;;;;8.30;5.90;;;9.20;1.00;;;;;;7372454;19;20014;-73
2023/05/04 02:08:02;;;;;;;9.45;6.18;;;9.30;1.00;;;;;;7373116;19;20019;-72
2023/05/04 02:10:32;;;;;;;11.88;6.43;;;9.20;1.00;;;;;;7370274;19;20021;-71
2023/05/04 02:13:02;;;;;;;10.75;6.85;;;9.20;1.00;;;;;;7393419;19;20018;-72
2023/05/04 02:15:32;;;;;;;11.82;6.15;;;9.20;1.00;;;;;;7371795;19;20502;-73
2023/05/04 02:18:02;;;;;;;10.00;6.40;;;9.20;1.00;;;;;;7374579;19;20017;-73
2023/05/04 02:20:32;;;;;;;10.82;6.80;;;9.10;1.00;;;;;;7371034;19;20035;-71
2023/05/04 02:23:05;;;;;;;10.43;7.13;;;9.10;1.00;;;;;;7371815;19;20075;-72
2023/05/04 02:25:35;;;;;;;12.80;6.90;;;9.00;1.00;;;;;;7367912;19;20395;-72
2023/05/04 02:28:05;;;;;;;9.50;6.80;;;9.00;1.00;;;;;;7388667;19;20018;-72
2023/05/04 02:30:35;;;;;;;10.15;7.63;;;9.10;1.00;;;;;;7366450;19;20026;-73
2023/05/04 02:33:04;;;;;;;14.82;6.45;;;9.00;1.00;;;;;;7363974;19;20014;-72
2023/05/04 02:35:35;;;;;;;11.10;6.80;;;8.90;1.00;;;;;;7363605;19;20085;-72
2023/05/04 02:38:07;;;;;;;10.05;6.72;;;8.80;1.00;;;;;;7365467;19;20473;-72
2023/05/04 02:40:37;;;;;;;11.05;6.95;;;8.80;1.00;;;;;;7363218;19;20013;-73
2023/05/04 02:43:07;;;;;;;10.10;7.05;;;8.80;1.00;;;;;;7385292;19;20018;-73
2023/05/04 02:45:37;;;;;;;11.77;7.88;;;8.80;1.00;;;;;;7364681;19;20018;-72
2023/05/04 02:48:07;;;;;;;11.80;6.90;;;8.70;1.00;;;;;;7365638;19;20015;-73
2023/05/04 02:50:37;;;;;;;11.50;7.20;;;8.70;1.00;;;;;;7364469;19;20533;-71
2023/05/04 02:53:10;;;;;;;8.90;6.35;;;8.70;1.00;;;;;;7364567;19;20018;-72
2023/05/04 02:55:40;;;;;;;10.32;6.05;;;8.60;1.00;;;;;;7365578;19;20010;-72
2023/05/04 02:58:10;;;;;;;10.55;6.22;;;8.50;1.00;;;;;;7389757;19;20025;-72
2023/05/04 03:00:40;;;;;;;9.00;6.60;;;8.50;1.00;;;;;;7361163;19;20010;-71
2023/05/04 03:03:10;;;;;;;8.88;6.40;;;8.50;1.00;;;;;;7363850;19;20065;-72
2023/05/04 03:05:40;;;;;;;8.82;6.95;;;8.50;1.00;;;;;;7363296;19;20489;-73
2023/05/04 03:08:12;;;;;;;12.23;7.10;;;8.50;1.00;;;;;;7363958;19;20018;-73
2023/05/04 03:10:42;;;;;;;9.57;7.10;;;8.50;1.00;;;;;;7362386;19;20046;-72
2023/05/04 03:13:12;;;;;;;12.40;6.88;;;8.50;1.00;;;;;;7365810;19;20026;-72
2023/05/04 03:15:42;;;;;;;9.90;7.50;;;8.40;1.00;;;;;;7384002;19;20022;-73
2023/05/04 03:18:12;;;;;;;12.63;7.57;;;8.50;1.00;;;;;;7365727;19;20015;-74
2023/05/04 03:20:42;;;;;;;10.45;7.57;;;8.40;1.00;;;;;;7363566;19;20017;-71
2023/05/04 03:23:15;;;;;;;11.35;7.28;;;8.50;1.00;;;;;;7363815;19;20449;-72
2023/05/04 03:25:44;;;;;;;12.55;7.68;;;8.50;1.00;;;;;;7361737;19;20445;-73
2023/05/04 03:28:14;;;;;;;11.68;7.50;;;8.50;1.00;;;;;;7365107;19;20014;-73
2023/05/04 03:30:44;;;;;;;10.70;7.38;;;8.60;1.00;;;;;;7386670;19;20078;-73
2023/05/04 03:33:14;;;;;;;9.75;7.18;;;8.60;1.00;;;;;;7363342;19;20010;-73
2023/05/04 03:35:44;;;;;;;10.95;7.45;;;8.50;1.00;;;;;;7361221;19;20010;-72
2023/05/04 03:38:17;;;;;;;11.63;7.97;;;8.40;1.00;;;;;;7361415;19;20015;-72
2023/05/04 03:40:47;;;;;;;13.07;8.27;;;8.40;1.00;;;;;;7361397;19;20722;-72
2023/05/04 03:43:16;;;;;;;14.05;8.77;;;8.50;1.00;;;;;;7365844;19;20422;-72
2023/05/04 03:45:46;;;;;;;10.68;7.85;;;8.50;1.00;;;;;;7386953;19;20684;-72
2023/05/04 03:48:16;;;;;;;12.40;8.15;;;8.60;1.00;;;;;;7364134;19;20022;-73
2023/05/04 03:50:46;;;;;;;13.95;8.88;;;8.60;1.00;;;;;;7361312;19;20070;-72
2023/05/04 03:53:19;;;;;;;13.55;8.40;;;8.60;1.00;;;;;;7365738;19;20109;-73
2023/05/04 03:55:49;;;;;;;13.40;9.07;;;8.70;1.00;;;;;;7362581;19;20015;-71
2023/05/04 03:58:19;;;;;;;12.13;8.98;;;8.70;1.00;;;;;;7362657;19;20025;-72
2023/05/04 04:00:48;;;;;;;12.90;9.02;;;8.60;1.00;;;;;;7381836;19;20042;-72
2023/05/04 04:03:18;;;;;;;14.48;8.55;;;8.50;1.00;;;;;;7361008;19;20010;-73
2023/05/04 04:05:48;;;;;;;13.98;9.13;;;8.50;1.00;;;;;;7362464;19;20018;-72
2023/05/04 04:08:21;;;;;;;12.98;8.82;;;8.60;1.00;;;;;;7363497;19;20017;-73
2023/05/04 04:10:51;;;;;;;14.90;9.23;;;8.70;1.00;;;;;;7359780;19;20029;-73
2023/05/04 04:13:21;;;;;;;13.85;9.23;;;8.80;1.00;;;;;;7361648;19;20013;-73
2023/05/04 04:15:51;;;;;;;15.77;9.35;;;8.90;1.00;;;;;;7383292;19;20021;-72
2023/05/04 04:18:21;;;;;;;15.00;10.30;;;8.90;1.00;;;;;;7361243;19;20474;-72
2023/05/04 04:20:51;;;;;;;14.60;8.90;;;8.90;1.00;;;;;;7360760;19;20509;-71
2023/05/04 04:23:24;;;;;;;12.52;8.20;;;8.80;1.00;;;;;;7361029;19;20478;-73
2023/05/04 04:25:54;;;;;;;15.60;9.18;;;8.90;1.00;;;;;;7362243;19;20018;-73
2023/05/04 04:28:24;;;;;;;10.32;7.90;;;9.40;1.00;;;;;;7361119;19;20010;-71
2023/05/04 04:30:54;;;;;;;10.45;8.20;;;9.60;1.00;;;;;;7380179;19;20026;-72
2023/05/04 04:33:24;;;;;;;11.07;8.05;;;9.80;1.00;;;;;;7361079;19;20010;-73
2023/05/04 04:35:55;;;;;;;14.63;8.43;;;9.80;1.00;;;;;;7360662;19;20010;-73
2023/05/04 04:38:27;;;;;;;10.50;8.38;;;10.00;1.00;;;;;;7361467;19;20086;-71
2023/05/04 04:40:58;;;;;;;10.07;7.85;;;10.30;1.00;;;;;;7361426;19;20021;-71
2023/05/04 04:43:27;;;;;;;13.10;8.40;;;10.60;1.00;;;;;;7360587;19;20025;-72
2023/05/04 04:45:57;;;;;;;12.52;8.38;;;11.20;1.00;;;;;;7382630;19;20046;-72
2023/05/04 04:48:27;;;;;;;11.80;8.38;;;11.30;1.00;;;;;;7360173;19;20018;-72
2023/05/04 04:50:57;;;;;;;13.13;8.05;;;11.60;1.00;;;;;;7359177;19;20026;-72
2023/05/04 04:53:30;;;;;;;11.60;8.02;;;11.70;1.00;;;;;;7360325;19;20698;-72
2023/05/04 04:56:00;;;;;;;11.27;8.48;;;11.70;1.00;;;;;;7361367;19;20011;-73
2023/05/04 04:58:31;;;;;;;12.82;8.20;;;11.00;1.00;;;;;;7359646;19;20016;-72
2023/05/04 05:01:01;;;;;;;11.40;7.90;;;10.70;1.00;;;;;;7380623;19;20526;-73
2023/05/04 05:03:31;;;;;;;14.27;8.13;;;11.00;1.00;;;;;;7359054;19;20057;-72
2023/05/04 05:06:02;;;;;;;14.20;8.35;;;11.40;1.00;;;;;;7360245;19;20015;-71
2023/05/04 05:08:36;;;;;;;11.88;9.10;;;11.40;1.00;;;;;;7360319;19;20021;-72
2023/05/04 05:11:07;;;;;;;11.05;8.15;;;11.40;1.00;;;;;;7358039;19;20021;-73
2023/05/04 05:13:37;;;;;;;11.73;8.65;;;11.90;1.00;;;;;;7359359;19;20420;-73
2023/05/04 05:16:07;;;;;;;10.73;8.13;;;13.00;1.00;;;;;;7382377;19;20042;-71
2023/05/04 05:18:37;;;;;;;11.43;7.53;;;14.10;1.00;;;;;;7358922;19;20541;-73
2023/05/04 05:21:08;;;;;;;14.10;7.72;;;14.20;1.00;;;;;;7359257;19;20017;-73
2023/05/04 05:23:40;;;;;;;13.32;7.57;;;14.20;1.00;;;;;;7357984;19;20014;-71
2023/05/04 05:26:10;;;;;;;12.30;7.57;;;14.50;1.00;;;;;;7359994;19;20370;-72
2023/05/04 05:28:40;;;;;;;10.95;8.43;;;15.00;1.00;;;;;;7358127;19;20470;-72
2023/05/04 05:31:10;;;;;;;9.48;7.40;;;14.80;1.00;;;;;;7375294;19;20037;-72
2023/05/04 05:33:41;;;;;;;11.05;7.60;;;14.60;1.00;;;;;;7379432;19;20025;-73
2023/05/04 05:36:13;;;;;;;11.52;7.93;;;15.30;1.00;;;;;;7361206;19;20039;-72
2023/05/04 05:38:45;;;;;;;11.75;7.95;;;15.80;1.00;;;;;;7360004;19;20057;-73
2023/05/04 05:41:18;;;;;;;11.48;7.85;;;15.50;1.00;;;;;;7356998;19;20018;-73
2023/05/04 05:43:48;;;;;;;12.23;8.18;;;15.10;1.00;;;;;;7360060;19;20017;-72
2023/05/04 05:46:18;;;;;;;11.07;8.07;;;15.10;1.00;;;;;;7362805;19;20014;-72
2023/05/04 05:48:48;;;;;;;11.27;7.40;;;13.10;1.00;;;;;;7380382;19;20022;-72
2023/05/04 05:51:18;;;;;;;14.00;8.63;;;12.50;1.00;;;;;;7357353;19;20093;-73
2023/05/04 05:53:51;;;;;;;12.70;8.55;;;12.00;1.00;;;;;;7347907;19;20052;-72
2023/05/04 05:56:20;;;;;;;11.32;8.45;;;12.00;1.00;;;;;;7359659;19;20022;-72
2023/05/04 05:58:53;;;;;;;11.95;8.88;;;12.20;1.00;;;;;;7361187;19;20018;-72
2023/05/04 06:01:22;;;;;;;10.27;8.35;;;12.80;1.00;;;;;;7358695;19;20114;-73
2023/05/04 06:03:52;;;;;;;13.30;8.95;;;12.80;1.00;;;;;;7383885;19;20025;-72
2023/05/04 06:06:23;;;;;;;10.60;8.52;;;12.60;1.00;;;;;;7364739;19;20015;-72
2023/05/04 06:08:55;;;;;;;12.93;8.63;;;12.70;1.00;;;;;;7366273;19;20010;-71
2023/05/04 06:11:25;;;;;;;13.85;9.05;;;12.90;1.00;;;;;;7365191;19;20014;-73
2023/05/04 06:13:55;;;;;;;14.68;8.85;;;13.10;1.00;;;;;;7364187;19;20017;-71
2023/05/04 06:16:25;;;;;;;13.52;9.48;;;12.70;1.00;;;;;;7365005;19;20046;-74
2023/05/04 06:18:55;;;;;;;12.48;9.90;;;12.90;1.00;;;;;;7387145;19;20074;-74
2023/05/04 06:21:25;;;;;;;14.63;9.07;;;13.20;1.00;;;;;;7363726;19;20022;-73
2023/05/04 06:23:58;;;;;;;11.15;8.57;;;13.70;1.00;;;;;;7364295;19;20010;-73
2023/05/04 06:26:28;;;;;;;13.15;8.90;;;13.70;1.00;;;;;;7365961;19;20046;-72
2023/05/04 06:28:57;;;;;;;11.52;8.70;;;13.70;1.00;;;;;;7368133;19;20010;-73
2023/05/04 06:31:27;;;;;;;13.35;8.68;;;13.50;1.00;;;;;;7364469;19;20083;-72
2023/05/04 06:33:57;;;;;;;14.48;9.55;;;13.40;1.00;;;;;;7389908;19;20007;-74
2023/05/04 06:36:27;;;;;;;12.73;8.88;;;13.50;1.00;;;;;;7364317;19;20010;-72
2023/05/04 06:39:00;;;;;;;15.95;9.77;;;13.50;1.00;;;;;;7364555;19;20059;-73
2023/05/04 06:41:30;;;;;;;12.65;9.00;;;13.40;1.00;;;;;;7364848;19;20015;-74
2023/05/04 06:44:00;;;;;;;14.50;9.40;;;13.60;1.00;;;;;;7362269;19;20018;-72
2023/05/04 06:46:30;;;;;;;12.60;9.77;;;13.60;1.00;;;;;;7364927;19;20018;-73
2023/05/04 06:49:00;;;;;;;13.63;8.85;;;13.30;1.00;;;;;;7385999;19;20305;-73
2023/05/04 06:51:30;;;;;;;11.70;9.68;;;13.70;1.00;;;;;;7361964;19;20014;-73
2023/05/04 06:54:02;;;;;;;11.98;9.07;;;13.80;1.00;;;;;;7364473;19;20025;-74
2023/05/04 06:56:33;;;;;;;12.40;9.10;;;13.90;1.00;;;;;;7363289;19;20006;-73
2023/05/04 06:59:04;;;;;;;13.18;9.93;;;14.00;1.00;;;;;;7363731;19;20015;-72
2023/05/04 07:01:34;;;;;;;13.45;9.65;;;13.90;1.00;;;;;;7362791;19;20014;-73
2023/05/04 07:04:07;;;;;;;11.68;9.35;;;14.30;1.00;;;;;;7382539;19;20032;-72
2023/05/04 07:06:38;;;;;;;13.63;10.00;;;14.40;1.00;;;;;;7364021;19;20014;-72
2023/05/04 07:09:10;;;;;;;15.90;10.10;;;14.50;1.00;;;;;;7364176;19;20027;-72
2023/05/04 07:11:40;;;;;;;12.93;9.25;;;14.70;1.00;;;;;;7361226;19;20023;-74
2023/05/04 07:14:10;;;;;;;12.73;9.82;;;14.90;1.00;;;;;;7363087;19;20010;-73
2023/05/04 07:16:40;;;;;;;11.60;9.95;;;15.10;1.00;;;;;;7363451;19;20011;-73
2023/05/04 07:19:11;;;;;;;13.32;9.25;;;15.00;1.00;;;;;;7379736;19;20018;-74
2023/05/04 07:21:40;;;;;;;14.07;10.75;;;15.60;1.00;;;;;;7383132;19;20021;-73
2023/05/04 07:24:13;;;;;;;15.23;10.13;;;16.10;1.00;;;;;;7359676;19;20014;-73
2023/05/04 07:26:43;;;;;;;12.18;9.88;;;16.20;1.00;;;;;;7363944;19;20367;-73
2023/05/04 07:29:13;;;;;;;14.63;10.50;;;16.40;1.00;;;;;;7364459;19;20029;-73
2023/05/04 07:31:42;;;;;;;14.25;10.48;;;16.30;1.00;;;;;;7363442;19;20010;-73
2023/05/04 07:34:12;;;;;;;15.18;10.85;;;16.60;1.00;;;;;;7359562;19;20018;-73
2023/05/04 07:36:42;;;;;;;13.93;10.50;;;16.10;1.00;;;;;;7387234;19;20014;-73
2023/05/04 07:39:15;;;;;;;15.45;9.95;;;15.60;1.00;;;;;;7362604;19;20010;-74
2023/05/04 07:41:45;;;;;;;12.85;9.80;;;16.20;1.00;;;;;;7363197;19;20404;-72
2023/05/04 07:44:18;;;;;;;13.75;11.52;;;16.20;1.00;;;;;;7360597;19;20018;-73
2023/05/04 07:46:48;;;;;;;14.82;10.57;;;15.90;1.00;;;;;;7362370;19;20010;-74
2023/05/04 07:49:17;;;;;;;15.23;11.23;;;16.10;1.00;;;;;;7363039;19;20025;-71
2023/05/04 07:51:47;;;;;;;12.25;10.52;;;16.50;1.00;;;;;;7384455;19;20019;-74
2023/05/04 07:54:20;;;;;;;12.60;10.00;;;16.60;1.00;;;;;;7362948;19;20035;-73
2023/05/04 07:56:51;;;;;;;10.60;8.70;;;16.80;1.00;;;;;;7362441;19;20010;-73
2023/05/04 07:59:21;;;;;;;9.80;8.80;;;16.50;1.00;;;;;;7360403;19;20032;-73
2023/05/04 08:01:51;;;;;;;13.88;8.88;;;16.50;1.00;;;;;;7362791;19;20374;-72
2023/05/04 08:04:21;;;;;;;10.80;9.10;;;16.40;1.00;;;;;;7359278;19;20014;-72
2023/05/04 08:06:51;;;;;;;13.75;8.85;;;16.40;1.00;;;;;;7384072;19;20086;-73
2023/05/04 08:09:24;;;;;;;9.15;8.15;;;16.90;1.00;;;;;;7361063;19;20498;-73
2023/05/04 08:11:54;;;;;;;11.73;8.98;;;16.90;1.00;;;;;;7360480;19;20021;-73
2023/05/04 08:14:23;;;;;;;10.50;8.70;;;16.90;1.00;;;;;;7360585;19;20102;-73
2023/05/04 08:16:53;;;;;;;9.90;8.15;;;17.30;1.00;;;;;;7361307;19;20031;-73
2023/05/04 08:19:24;;;;;;;10.82;8.60;;;17.00;1.00;;;;;;7362028;19;20036;-72
2023/05/04 08:21:54;;;;;;;9.35;7.85;;;17.00;1.00;;;;;;7383410;19;20014;-72
2023/05/04 08:24:26;;;;;;;7.75;6.95;;;17.40;1.00;;;;;;7357252;19;20014;-73
2023/05/04 08:26:58;;;;;;;8.25;6.70;;;17.50;1.00;;;;;;7363440;19;20124;-73
2023/05/04 08:29:37;;;;;;;8.77;6.65;;;17.80;1.00;;;;;;7361377;19;20018;-73
2023/05/04 08:32:07;;;;;;;7.07;5.90;;;17.90;1.00;;;;;;7363231;19;20006;-73
2023/05/04 08:34:38;;;;;;;6.30;5.68;;;17.60;1.00;;;;;;7362998;19;20007;-72
2023/05/04 08:37:07;;;;;;;7.13;5.90;;;17.70;1.00;;;;;;7386672;19;20020;-73
2023/05/04 08:39:40;;;;;;;9.52;6.10;;;17.40;1.00;;;;;;7362269;19;20011;-73
2023/05/04 08:42:11;;;;;;;8.55;5.72;;;17.30;1.00;;;;;;7363209;19;20083;-73
2023/05/04 08:44:41;;;;;;;9.20;6.00;;;17.60;1.00;;;;;;7361120;19;20014;-73
2023/05/04 08:47:12;;;;;;;8.63;5.80;;;17.50;1.00;;;;;;7362198;19;20008;-72
2023/05/04 08:49:43;;;;;;;8.98;6.70;;;18.00;1.00;;;;;;7362928;19;20018;-73
2023/05/04 08:52:13;;;;;;;6.57;5.88;;;17.80;1.00;;;;;;7364410;19;20006;-72
2023/05/04 08:54:47;;;;;;;7.38;5.85;;;17.90;1.00;;;;;;7385099;19;20022;-72
2023/05/04 08:57:17;;;;;;;7.00;5.17;;;18.30;1.00;;;;;;7362893;19;20003;-72
2023/05/04 08:59:52;;;;;;;7.65;5.95;;;18.30;1.00;;;;;;7360203;19;20085;-71
2023/05/04 09:02:24;;;;;;;6.28;5.03;;;18.40;1.00;;;;;;7364272;19;20018;-72
2023/05/04 09:04:55;;;;;;;6.00;5.13;;;18.70;1.00;;;;;;7363084;19;20342;-71
2023/05/04 09:07:25;;;;;;;6.50;5.70;;;18.50;1.00;;;;;;7362229;19;20044;-71
2023/05/04 09:09:59;;;;;;;8.55;5.13;;;18.40;1.00;;;;;;7382847;19;20604;-72
2023/05/04 09:12:30;;;;;;;6.35;5.10;;;18.40;1.00;;;;;;7362696;19;20034;-71
2023/05/04 09:15:01;;;;;;;8.88;5.18;;;18.40;1.00;;;;;;7361765;19;20014;-71
2023/05/04 09:17:31;;;;;;;11.15;8.77;;;18.80;1.00;;;;;;7355660;19;20002;-72
2023/05/04 09:20:02;;;;;;;6.38;4.90;;;19.30;1.00;;;;;;7357897;19;20378;-72
2023/05/04 09:22:32;;;;;;;6.97;5.07;;;18.80;1.00;;;;;;7361581;19;20020;-72
2023/05/04 09:25:15;;;;;;;5.90;5.25;;;18.60;1.00;;;;;;7380998;19;20019;-72
2023/05/04 09:27:55;;;;;;;8.73;5.07;;;18.60;1.00;;;;;;7359864;19;20035;-73
2023/05/04 09:30:25;;;;;;;5.40;4.18;;;19.20;1.00;;;;;;7358049;19;20006;-73
2023/05/04 09:32:56;;;;;;;5.28;4.25;;;19.40;1.00;;;;;;7362204;19;20455;-74
2023/05/04 09:35:30;;;;;;;5.90;4.22;;;19.70;1.00;;;;;;7364736;19;20013;-74
2023/05/04 09:38:03;;;;;;;7.13;4.28;;;19.70;1.00;;;;;;7368817;19;20078;-73
2023/05/04 09:40:39;;;;;;;4.82;4.32;;;19.30;1.00;;;;;;7366101;19;20022;-74
2023/05/04 09:43:09;;;;;;;6.10;4.43;;;19.70;1.00;;;;;;7391403;19;20007;-72
2023/05/04 09:45:43;;;;;;;6.57;4.30;;;19.90;1.00;;;;;;7367373;19;20023;-71
2023/05/04 09:48:24;;;;;;;5.75;4.80;;;19.90;1.00;;;;;;7364463;19;20264;-73
2023/05/04 09:50:55;;;;;;;5.32;4.18;;;19.30;1.00;;;;;;7366249;19;20015;-71
2023/05/04 09:53:26;;;;;;;4.78;4.32;;;19.40;1.00;;;;;;7369176;19;20648;-73
2023/05/04 09:56:10;;;;;;;4.40;4.00;;;19.40;1.00;;;;;;7366147;19;20482;-73
2023/05/04 09:58:40;;;;;;;5.80;4.20;;;19.90;1.00;;;;;;7366270;19;20011;-73
2023/05/04 10:01:11;;;;;;;4.95;4.38;;;19.80;1.00;;;;;;7384230;19;20070;-73
2023/05/04 10:03:41;;;;;;;4.95;3.95;;;20.00;1.00;;;;;;7367917;19;20529;-73
2023/05/04 10:06:13;;;;;;;6.03;4.53;;;20.10;1.00;;;;;;7368496;19;20030;-73
2023/05/04 10:08:44;;;;;;;5.28;4.78;;;19.80;1.00;;;;;;7369124;19;20038;-71
2023/05/04 10:11:18;;;;;;;7.28;4.38;;;20.20;1.00;;;;;;7366880;19;20034;-73
2023/05/04 10:13:48;;;;;;;5.05;4.47;;;20.30;1.00;;;;;;7367792;19;20162;-72
2023/05/04 10:16:42;;;;;;;5.47;3.95;;;20.30;1.00;;;;;;7369986;19;20066;-73
2023/05/04 10:19:45;;;;;;;5.95;4.32;;;20.40;1.00;;;;;;7371736;19;20051;-73
2023/05/04 10:22:38;;;;;;;5.65;3.88;;;20.80;1.00;;;;;;7369074;19;21077;-72
2023/05/04 10:25:31;;;;;;;4.88;4.10;;;20.70;1.00;;;;;;7390407;19;20034;-74
2023/05/04 10:28:16;;;;;;;4.53;4.13;;;20.80;1.00;;;;;;7371888;19;20021;-72
2023/05/04 10:30:46;;;;;;;6.60;4.28;;;20.80;1.00;;;;;;7368637;19;20013;-70
2023/05/04 10:33:16;;;;;;;4.93;4.20;;;21.10;1.00;;;;;;7367611;19;20021;-73
2023/05/04 10:35:53;;;;;;;5.45;4.50;;;21.10;1.00;;;;;;7366577;19;20356;-73
2023/05/04 10:38:33;;;;;;;4.65;3.92;;;20.70;1.00;;;;;;7367489;19;20070;-73
2023/05/04 10:41:14;;;;;;;5.30;3.80;;;20.40;1.00;;;;;;7364834;19;20014;-73
2023/05/04 10:43:51;;;;;;;6.45;3.78;;;20.70;1.00;;;;;;7365930;19;20383;-73
2023/05/04 10:46:23;;;;;;;4.82;3.65;;;21.20;1.00;;;;;;7364171;19;20018;-74
2023/05/04 10:48:53;;;;;;;4.32;3.92;;;21.10;1.00;;;;;;7389446;19;20018;-72
2023/05/04 10:51:25;;;;;;;5.00;3.92;;;20.70;1.00;;;;;;7366079;19;20018;-72
2023/05/04 10:54:04;;;;;;;5.90;3.78;;;21.20;1.00;;;;;;7368052;19;20014;-72
2023/05/04 10:56:34;;;;;;;5.68;3.38;;;21.50;1.00;;;;;;7366991;19;20086;-72
2023/05/04 10:59:13;;;;;;;5.25;3.70;;;21.50;1.00;;;;;;7365596;19;20105;-72
2023/05/04 11:01:44;;;;;;;4.53;3.72;;;21.20;1.00;;;;;;7366500;19;20485;-73
2023/05/04 11:04:22;;;;;;;4.55;3.90;;;21.10;1.00;;;;;;7366226;19;20025;-74
2023/05/04 11:06:59;;;;;;;3.60;3.28;;;21.20;1.00;;;;;;7386791;19;20022;-73
2023/05/04 11:09:30;;;;;;;5.97;3.33;;;21.80;1.00;;;;;;7364357;19;20526;-73
2023/05/04 11:12:01;;;;;;;4.43;3.40;;;21.70;1.00;;;;;;7366164;19;20498;-72
2023/05/04 11:14:36;;;;;;;4.45;3.28;;;21.50;1.00;;;;;;7368657;19;20010;-73
2023/05/04 11:17:09;;;;;;;4.10;3.53;;;21.40;1.00;;;;;;7366857;19;20011;-73
2023/05/04 11:19:56;;;;;;;7.00;3.58;;;21.40;1.00;;;;;;7364693;19;20018;-72
2023/05/04 11:22:27;;;;;;;7.25;3.53;;;21.50;1.00;;;;;;7367725;19;20015;-72
2023/05/04 11:24:57;;;;;;;6.15;3.47;;;21.50;1.00;;;;;;7387036;19;20081;-72
2023/05/04 11:27:29;;;;;;;3.92;3.42;;;21.80;1.00;;;;;;7372663;19;20010;-73
2023/05/04 11:30:04;;;;;;;4.75;3.30;;;22.10;1.00;;;;;;7368091;19;20010;-72
2023/05/04 11:32:36;;;;;;;4.20;3.53;;;22.20;1.00;;;;;;7364388;19;20069;-72
2023/05/04 11:35:10;;;;;;;5.25;3.55;;;22.50;1.00;;;;;;7365698;19;20053;-74
2023/05/04 11:37:41;;;;;;;3.78;3.45;;;22.00;1.00;;;;;;7367597;19;20011;-73
2023/05/04 11:40:13;;;;;;;4.60;3.30;;;21.60;1.00;;;;;;7374984;19;20010;-71
2023/05/04 11:42:44;;;;;;;4.85;3.25;;;21.70;1.00;;;;;;7386810;19;20349;-75
2023/05/04 11:45:20;;;;;;;4.95;3.70;;;22.40;1.00;;;;;;7364379;19;20081;-72
2023/05/04 11:47:51;;;;;;;6.38;3.60;;;22.30;1.00;;;;;;7364507;19;20010;-72
2023/05/04 11:50:22;;;;;;;4.40;3.83;;;22.10;1.00;;;;;;7365529;19;20014;-73
2023/05/04 11:52:52;;;;;;;4.43;3.35;;;21.80;1.00;;;;;;7364833;19;20021;-73
2023/05/04 11:55:30;;;;;;;8.02;3.42;;;22.40;1.00;;;;;;7363388;19;20495;-73
2023/05/04 11:58:02;;;;;;;4.72;3.00;;;22.40;1.00;;;;;;7387114;19;20082;-74
2023/05/04 12:00:45;;;;;;;6.97;3.20;;;22.40;1.00;;;;;;7362170;19;20022;-73
2023/05/04 12:03:16;;;;;;;5.55;3.33;;;22.10;1.00;;;;;;7364408;19;20006;-72
2023/05/04 12:05:50;;;;;;;4.68;3.20;;;22.00;1.00;;;;;;7364293;19;20030;-72
2023/05/04 12:08:25;;;;;;;5.30;3.22;;;22.40;1.00;;;;;;7363717;19;20105;-72
2023/05/04 12:11:10;;;;;;;4.43;3.28;;;22.50;1.00;;;;;;7365995;19;20018;-72
2023/05/04 12:13:41;;;;;;;4.15;3.75;;;22.40;1.00;;;;;;7365547;19;20089;-71
2023/05/04 12:16:16;;;;;;;6.15;3.97;;;22.20;1.00;;;;;;7373083;19;20010;-72
2023/05/04 12:18:48;;;;;;;7.10;4.85;;;21.70;1.00;;;;;;7387905;19;20010;-72
2023/05/04 12:21:20;;;;;;;4.03;3.20;;;22.10;1.00;;;;;;7371840;19;20018;-72
2023/05/04 12:23:50;;;;;;;5.07;3.30;;;22.70;1.00;;;;;;7370180;19;20014;-73
2023/05/04 12:26:20;;;;;;;4.60;3.60;;;22.40;1.00;;;;;;7366282;19;20383;-71
2023/05/04 12:28:50;;;;;;;3.63;3.30;;;22.20;1.00;;;;;;7363953;19;20822;-72
2023/05/04 12:31:23;;;;;;;4.28;3.30;;;22.70;1.00;;;;;;7362938;19;20021;-71
2023/05/04 12:33:54;;;;;;;;;;;23.00;1.00;;;;;;7384177;19;20035;-72
2023/05/04 12:36:24;;;;;;;5.85;3.28;;;22.50;1.00;;;;;;7363181;19;19919;-72
2023/05/04 12:38:54;;;;;;;6.53;3.20;;;22.80;1.00;;;;;;7362439;19;20018;-73
2023/05/04 12:41:23;;;;;;;6.65;3.72;;;23.30;1.00;;;;;;7362689;19;20014;-73
2023/05/04 12:43:53;;;;;;;4.63;3.38;;;23.00;1.00;;;;;;7361375;19;20511;-72
2023/05/04 12:46:26;;;;;;;6.10;3.60;;;23.40;1.00;;;;;;7361580;19;20030;-72
2023/05/04 12:48:56;;;;;;;5.82;3.78;;;23.00;1.00;;;;;;7382512;19;20086;-72
2023/05/04 12:51:26;;;;;;;4.13;2.90;;;23.30;1.00;;;;;;7360754;19;20485;-73
2023/05/04 12:53:57;;;;;;;5.43;3.92;;;23.20;1.00;;;;;;7361448;19;20446;-72
2023/05/04 12:56:27;;;;;;;4.13;3.50;;;23.10;1.00;;;;;;7361103;19;20018;-72
2023/05/04 12:58:57;;;;;;;5.45;3.65;;;23.00;1.00;;;;;;7360522;19;20485;-73
2023/05/04 13:01:29;;;;;;;5.70;3.90;;;23.40;1.00;;;;;;7360347;19;20015;-72
2023/05/04 13:03:59;;;;;;;6.13;4.18;;;23.50;1.00;;;;;;7382098;19;20022;-73
2023/05/04 13:06:29;;;;;;;5.53;3.90;;;23.30;1.00;;;;;;7363269;19;20048;-73
2023/05/04 13:09:00;;;;;;;5.05;3.65;;;23.60;1.00;;;;;;7360182;19;20510;-72
2023/05/04 13:11:30;;;;;;;5.88;4.32;;;23.50;1.00;;;;;;7358989;19;20522;-71
2023/05/04 13:14:00;;;;;;;5.75;4.05;;;23.40;1.00;;;;;;7362051;19;20018;-72
2023/05/04 13:16:32;;;;;;;5.63;3.88;;;22.90;1.00;;;;;;7361937;19;20021;-71
2023/05/04 13:19:03;;;;;;;5.50;4.63;;;23.20;1.00;;;;;;7381710;19;20025;-72